sensor_id;sensor_type;location;lat;lon;timestamp;pressure;altitude;pressure_sealevel;temperature;humidity
11339;BME280;5724;42.684;23.252;2023-11-19T00:01:03;94327.56;;;1.42;89.85
11339;BME280;5724;42.684;23.252;2023-11-19T00:03:51;94326.78;;;1.41;89.39
11339;BME280;5724;42.684;23.252;2023-11-19T00:06:37;94319.50;;;1.42;89.19
11339;BME280;5724;42.684;23.252;2023-11-19T00:09:23;94322.69;;;1.44;89.22
11339;BME280;5724;42.684;23.252;2023-11-19T00:12:11;94310.63;;;1.55;89.26
11339;BME280;5724;42.684;23.252;2023-11-19T00:14:56;94315.00;;;1.51;89.37
11339;BME280;5724;42.684;23.252;2023-11-19T00:17:44;94311.81;;;1.49;89.08
11339;BME280;5724;42.684;23.252;2023-11-19T00:20:30;94299.19;;;1.36;89.40
11339;BME280;5724;42.684;23.252;2023-11-19T00:23:16;94323.78;;;1.43;89.62
11339;BME280;5724;42.684;23.252;2023-11-19T00:26:02;94318.59;;;1.47;89.18
11339;BME280;5724;42.684;23.252;2023-11-19T00:28:51;94316.41;;;1.49;88.78
11339;BME280;5724;42.684;23.252;2023-11-19T00:31:38;94335.56;;;1.47;88.69
11339;BME280;5724;42.684;23.252;2023-11-19T00:34:24;94309.75;;;1.46;88.71
11339;BME280;5724;42.684;23.252;2023-11-19T00:37:09;94332.16;;;1.55;89.24
11339;BME280;5724;42.684;23.252;2023-11-19T00:39:55;94340.34;;;1.50;89.47
11339;BME280;5724;42.684;23.252;2023-11-19T00:42:41;94330.19;;;1.47;89.39
11339;BME280;5724;42.684;23.252;2023-11-19T00:45:27;94334.06;;;1.41;89.52
11339;BME280;5724;42.684;23.252;2023-11-19T00:48:13;94334.56;;;1.43;89.69
11339;BME280;5724;42.684;23.252;2023-11-19T00:50:59;94350.34;;;1.36;90.02
11339;BME280;5724;42.684;23.252;2023-11-19T00:53:45;94324.78;;;1.47;89.45
11339;BME280;5724;42.684;23.252;2023-11-19T00:56:30;94342.13;;;1.41;89.92
11339;BME280;5724;42.684;23.252;2023-11-19T00:59:16;94322.31;;;1.37;90.11
11339;BME280;5724;42.684;23.252;2023-11-19T01:02:02;94324.41;;;1.40;89.93
11339;BME280;5724;42.684;23.252;2023-11-19T01:04:49;94323.78;;;1.43;89.79
11339;BME280;5724;42.684;23.252;2023-11-19T01:07:34;94325.72;;;1.29;90.05
11339;BME280;5724;42.684;23.252;2023-11-19T01:10:20;94327.00;;;1.45;89.80
11339;BME280;5724;42.684;23.252;2023-11-19T01:13:06;94323.59;;;1.39;90.01
11339;BME280;5724;42.684;23.252;2023-11-19T01:15:52;94329.88;;;1.35;90.28
11339;BME280;5724;42.684;23.252;2023-11-19T01:18:37;94321.63;;;1.31;89.58
11339;BME280;5724;42.684;23.252;2023-11-19T01:21:23;94337.16;;;1.34;89.64
11339;BME280;5724;42.684;23.252;2023-11-19T01:24:09;94327.41;;;1.38;89.96
11339;BME280;5724;42.684;23.252;2023-11-19T01:26:55;94324.13;;;1.28;89.35
11339;BME280;5724;42.684;23.252;2023-11-19T01:29:43;94325.22;;;1.27;89.69
11339;BME280;5724;42.684;23.252;2023-11-19T01:32:29;94330.59;;;1.27;89.11
11339;BME280;5724;42.684;23.252;2023-11-19T01:35:15;94358.22;;;1.19;88.81
11339;BME280;5724;42.684;23.252;2023-11-19T01:38:00;94337.34;;;1.24;88.63
11339;BME280;5724;42.684;23.252;2023-11-19T01:40:46;94346.22;;;1.25;89.13
11339;BME280;5724;42.684;23.252;2023-11-19T01:43:36;94353.13;;;1.17;89.14
11339;BME280;5724;42.684;23.252;2023-11-19T01:46:22;94353.31;;;1.21;88.78
11339;BME280;5724;42.684;23.252;2023-11-19T01:49:08;94370.44;;;1.25;88.27
11339;BME280;5724;42.684;23.252;2023-11-19T01:51:54;94380.41;;;1.24;87.27
11339;BME280;5724;42.684;23.252;2023-11-19T01:54:40;94360.69;;;1.29;87.26
11339;BME280;5724;42.684;23.252;2023-11-19T01:57:26;94377.66;;;1.29;87.14
11339;BME280;5724;42.684;23.252;2023-11-19T02:00:12;94374.16;;;1.29;86.80
11339;BME280;5724;42.684;23.252;2023-11-19T02:02:59;94366.09;;;1.29;87.00
11339;BME280;5724;42.684;23.252;2023-11-19T02:05:45;94361.69;;;1.33;86.75
11339;BME280;5724;42.684;23.252;2023-11-19T02:08:34;94357.31;;;1.37;86.94
11339;BME280;5724;42.684;23.252;2023-11-19T02:11:20;94357.31;;;1.37;86.93
11339;BME280;5724;42.684;23.252;2023-11-19T02:14:06;94358.09;;;1.37;86.85
11339;BME280;5724;42.684;23.252;2023-11-19T02:16:46;94351.13;;;1.36;87.29
11339;BME280;5724;42.684;23.252;2023-11-19T02:19:11;94355.91;;;1.39;86.76
11339;BME280;5724;42.684;23.252;2023-11-19T02:21:37;94348.91;;;1.25;87.08
11339;BME280;5724;42.684;23.252;2023-11-19T02:24:25;94357.59;;;1.22;87.34
11339;BME280;5724;42.684;23.252;2023-11-19T02:27:48;94352.34;;;1.17;87.20
11339;BME280;5724;42.684;23.252;2023-11-19T02:30:36;94347.22;;;1.15;87.09
11339;BME280;5724;42.684;23.252;2023-11-19T02:33:22;94367.28;;;1.09;87.54
11339;BME280;5724;42.684;23.252;2023-11-19T02:36:08;94323.13;;;1.10;87.63
11339;BME280;5724;42.684;23.252;2023-11-19T02:38:54;94328.91;;;1.03;87.52
11339;BME280;5724;42.684;23.252;2023-11-19T02:41:40;94323.03;;;1.01;87.98
11339;BME280;5724;42.684;23.252;2023-11-19T02:44:26;94277.97;;;0.66;87.70
11339;BME280;5724;42.684;23.252;2023-11-19T02:47:15;94333.59;;;0.98;88.19
11339;BME280;5724;42.684;23.252;2023-11-19T02:50:01;94347.31;;;0.96;87.80
11339;BME280;5724;42.684;23.252;2023-11-19T02:52:47;94349.94;;;1.01;87.85
11339;BME280;5724;42.684;23.252;2023-11-19T02:55:34;94344.75;;;1.05;88.00
11339;BME280;5724;42.684;23.252;2023-11-19T02:58:23;94343.16;;;1.04;87.98
11339;BME280;5724;42.684;23.252;2023-11-19T03:01:10;94329.00;;;0.98;88.03
11339;BME280;5724;42.684;23.252;2023-11-19T03:04:05;94334.50;;;1.07;88.03
11339;BME280;5724;42.684;23.252;2023-11-19T03:06:50;94347.53;;;1.00;87.42
11339;BME280;5724;42.684;23.252;2023-11-19T03:09:36;94346.25;;;0.97;88.47
11339;BME280;5724;42.684;23.252;2023-11-19T03:12:22;94364.19;;;1.02;88.54
11339;BME280;5724;42.684;23.252;2023-11-19T03:15:08;94373.66;;;0.99;87.97
11339;BME280;5724;42.684;23.252;2023-11-19T03:17:57;94364.56;;;0.95;88.43
11339;BME280;5724;42.684;23.252;2023-11-19T03:20:43;94368.84;;;0.96;88.77
11339;BME280;5724;42.684;23.252;2023-11-19T03:23:29;94370.97;;;0.99;88.13
11339;BME280;5724;42.684;23.252;2023-11-19T03:26:15;94353.03;;;1.08;87.72
11339;BME280;5724;42.684;23.252;2023-11-19T03:29:01;94352.44;;;0.98;87.50
11339;BME280;5724;42.684;23.252;2023-11-19T03:31:46;94362.28;;;0.89;88.36
11339;BME280;5724;42.684;23.252;2023-11-19T03:34:32;94367.56;;;0.94;88.73
11339;BME280;5724;42.684;23.252;2023-11-19T03:37:18;94357.59;;;0.94;88.65
11339;BME280;5724;42.684;23.252;2023-11-19T03:40:05;94366.06;;;0.88;88.30
11339;BME280;5724;42.684;23.252;2023-11-19T03:42:51;94373.94;;;0.98;88.86
11339;BME280;5724;42.684;23.252;2023-11-19T03:45:37;94381.22;;;0.97;88.38
11339;BME280;5724;42.684;23.252;2023-11-19T03:48:23;94397.13;;;0.94;89.08
11339;BME280;5724;42.684;23.252;2023-11-19T03:51:08;94408.19;;;0.92;87.91
11339;BME280;5724;42.684;23.252;2023-11-19T03:53:54;94400.13;;;0.92;89.07
11339;BME280;5724;42.684;23.252;2023-11-19T03:56:40;94387.47;;;0.79;88.36
11339;BME280;5724;42.684;23.252;2023-11-19T03:59:26;94387.59;;;1.01;87.78
11339;BME280;5724;42.684;23.252;2023-11-19T04:02:11;94394.56;;;1.02;87.45
11339;BME280;5724;42.684;23.252;2023-11-19T04:04:57;94396.06;;;1.08;87.92
11339;BME280;5724;42.684;23.252;2023-11-19T04:07:43;94403.72;;;1.01;87.76
11339;BME280;5724;42.684;23.252;2023-11-19T04:10:28;94410.72;;;1.02;87.10
11339;BME280;5724;42.684;23.252;2023-11-19T04:13:14;94428.06;;;1.10;87.76
11339;BME280;5724;42.684;23.252;2023-11-19T04:16:00;94423.00;;;1.22;87.62
11339;BME280;5724;42.684;23.252;2023-11-19T04:18:46;94418.41;;;1.23;87.12
11339;BME280;5724;42.684;23.252;2023-11-19T04:21:33;94430.69;;;1.29;87.50
11339;BME280;5724;42.684;23.252;2023-11-19T04:24:18;94415.50;;;1.33;86.99
11339;BME280;5724;42.684;23.252;2023-11-19T04:27:04;94421.91;;;1.37;85.88
11339;BME280;5724;42.684;23.252;2023-11-19T04:29:51;94428.97;;;1.33;85.69
11339;BME280;5724;42.684;23.252;2023-11-19T04:32:37;94427.50;;;1.27;85.81
11339;BME280;5724;42.684;23.252;2023-11-19T04:35:23;94426.88;;;1.30;85.99
11339;BME280;5724;42.684;23.252;2023-11-19T04:38:09;94432.75;;;1.18;86.06
11339;BME280;5724;42.684;23.252;2023-11-19T04:40:54;94426.47;;;1.23;85.57
11339;BME280;5724;42.684;23.252;2023-11-19T04:43:42;94428.66;;;1.21;86.30
11339;BME280;5724;42.684;23.252;2023-11-19T04:46:28;94415.59;;;1.14;86.29
11339;BME280;5724;42.684;23.252;2023-11-19T04:49:14;94410.22;;;1.14;86.00
11339;BME280;5724;42.684;23.252;2023-11-19T04:52:00;94421.59;;;1.11;86.74
11339;BME280;5724;42.684;23.252;2023-11-19T04:54:46;94409.91;;;1.15;86.06
11339;BME280;5724;42.684;23.252;2023-11-19T04:57:31;94409.34;;;1.19;85.58
11339;BME280;5724;42.684;23.252;2023-11-19T04:59:58;94418.28;;;1.14;86.66
11339;BME280;5724;42.684;23.252;2023-11-19T05:02:24;94422.31;;;1.17;86.26
11339;BME280;5724;42.684;23.252;2023-11-19T05:04:50;94431.25;;;1.12;86.22
11339;BME280;5724;42.684;23.252;2023-11-19T05:07:35;94448.00;;;1.23;86.32
11339;BME280;5724;42.684;23.252;2023-11-19T05:10:21;94448.59;;;1.20;86.09
11339;BME280;5724;42.684;23.252;2023-11-19T05:13:07;94454.19;;;1.23;85.74
11339;BME280;5724;42.684;23.252;2023-11-19T05:15:53;94445.19;;;1.14;85.47
11339;BME280;5724;42.684;23.252;2023-11-19T05:18:38;94441.72;;;1.13;85.66
11339;BME280;5724;42.684;23.252;2023-11-19T05:21:24;94449.59;;;1.24;85.57
11339;BME280;5724;42.684;23.252;2023-11-19T05:24:10;94447.59;;;1.15;86.21
11339;BME280;5724;42.684;23.252;2023-11-19T05:26:57;94445.41;;;1.18;86.00
11339;BME280;5724;42.684;23.252;2023-11-19T05:29:43;94446.78;;;1.15;86.18
11339;BME280;5724;42.684;23.252;2023-11-19T05:32:29;94444.41;;;1.13;85.38
11339;BME280;5724;42.684;23.252;2023-11-19T05:35:15;94440.91;;;1.13;86.05
11339;BME280;5724;42.684;23.252;2023-11-19T05:38:01;94448.00;;;1.09;86.42
11339;BME280;5724;42.684;23.252;2023-11-19T05:40:48;94451.56;;;1.04;86.57
11339;BME280;5724;42.684;23.252;2023-11-19T05:43:34;94457.63;;;0.96;87.23
11339;BME280;5724;42.684;23.252;2023-11-19T05:46:19;94459.25;;;0.97;86.54
11339;BME280;5724;42.684;23.252;2023-11-19T05:49:05;94464.69;;;0.92;86.51
11339;BME280;5724;42.684;23.252;2023-11-19T05:51:51;94472.28;;;1.04;87.08
11339;BME280;5724;42.684;23.252;2023-11-19T05:54:39;94445.19;;;1.00;86.72
11339;BME280;5724;42.684;23.252;2023-11-19T05:57:25;94453.06;;;0.97;86.93
11339;BME280;5724;42.684;23.252;2023-11-19T06:00:13;94469.03;;;1.07;86.42
11339;BME280;5724;42.684;23.252;2023-11-19T06:03:00;94470.50;;;0.99;87.38
11339;BME280;5724;42.684;23.252;2023-11-19T06:05:47;94489.56;;;0.84;86.79
11339;BME280;5724;42.684;23.252;2023-11-19T06:08:34;94468.53;;;0.86;87.14
11339;BME280;5724;42.684;23.252;2023-11-19T06:11:19;94477.53;;;0.95;87.29
11339;BME280;5724;42.684;23.252;2023-11-19T06:14:06;94514.81;;;0.88;87.59
11339;BME280;5724;42.684;23.252;2023-11-19T06:16:52;94465.22;;;0.75;87.58
11339;BME280;5724;42.684;23.252;2023-11-19T06:19:38;94474.47;;;0.88;87.70
11339;BME280;5724;42.684;23.252;2023-11-19T06:22:24;94470.16;;;0.87;87.47
11339;BME280;5724;42.684;23.252;2023-11-19T06:25:10;94476.34;;;0.88;87.24
11339;BME280;5724;42.684;23.252;2023-11-19T06:27:56;94487.59;;;0.90;88.04
11339;BME280;5724;42.684;23.252;2023-11-19T06:30:42;94502.94;;;0.89;87.03
11339;BME280;5724;42.684;23.252;2023-11-19T06:33:29;94487.59;;;0.90;87.11
11339;BME280;5724;42.684;23.252;2023-11-19T06:36:15;94482.47;;;0.74;87.06
11339;BME280;5724;42.684;23.252;2023-11-19T06:39:03;94482.75;;;0.73;87.89
11339;BME280;5724;42.684;23.252;2023-11-19T06:41:49;94497.91;;;0.69;87.60
11339;BME280;5724;42.684;23.252;2023-11-19T06:44:35;94479.50;;;0.57;87.23
11339;BME280;5724;42.684;23.252;2023-11-19T06:47:21;94505.38;;;0.72;87.46
11339;BME280;5724;42.684;23.252;2023-11-19T06:50:07;94497.09;;;0.68;86.72
11339;BME280;5724;42.684;23.252;2023-11-19T06:52:53;94485.59;;;0.63;87.17
11339;BME280;5724;42.684;23.252;2023-11-19T06:55:39;94489.09;;;0.63;87.80
11339;BME280;5724;42.684;23.252;2023-11-19T06:58:24;94488.47;;;0.52;87.30
11339;BME280;5724;42.684;23.252;2023-11-19T07:01:10;94493.19;;;0.61;87.53
11339;BME280;5724;42.684;23.252;2023-11-19T07:03:56;94492.16;;;0.56;87.22
11339;BME280;5724;42.684;23.252;2023-11-19T07:06:43;94484.94;;;0.71;86.71
11339;BME280;5724;42.684;23.252;2023-11-19T07:09:29;94486.84;;;0.51;86.50
11339;BME280;5724;42.684;23.252;2023-11-19T07:12:15;94510.81;;;0.67;85.96
11339;BME280;5724;42.684;23.252;2023-11-19T07:15:01;94503.53;;;0.67;86.42
11339;BME280;5724;42.684;23.252;2023-11-19T07:17:48;94515.53;;;0.56;85.98
11339;BME280;5724;42.684;23.252;2023-11-19T07:20:34;94499.84;;;0.63;86.58
11339;BME280;5724;42.684;23.252;2023-11-19T07:23:20;94506.31;;;0.81;86.59
11339;BME280;5724;42.684;23.252;2023-11-19T07:26:07;94504.03;;;0.88;86.13
11339;BME280;5724;42.684;23.252;2023-11-19T07:28:56;94507.13;;;0.95;85.84
11339;BME280;5724;42.684;23.252;2023-11-19T07:31:44;94519.09;;;0.89;85.43
11339;BME280;5724;42.684;23.252;2023-11-19T07:34:30;94518.72;;;0.77;84.55
11339;BME280;5724;42.684;23.252;2023-11-19T07:37:16;94510.88;;;0.80;84.80
11339;BME280;5724;42.684;23.252;2023-11-19T07:40:02;94505.00;;;0.78;85.34
11339;BME280;5724;42.684;23.252;2023-11-19T07:42:49;94525.63;;;0.83;85.80
11339;BME280;5724;42.684;23.252;2023-11-19T07:45:35;94529.34;;;0.87;85.36
11339;BME280;5724;42.684;23.252;2023-11-19T07:48:20;94528.25;;;0.88;84.83
11339;BME280;5724;42.684;23.252;2023-11-19T07:51:11;94525.56;;;0.88;84.08
11339;BME280;5724;42.684;23.252;2023-11-19T07:53:57;94525.72;;;0.78;84.22
11339;BME280;5724;42.684;23.252;2023-11-19T07:56:43;94527.97;;;0.71;85.09
11339;BME280;5724;42.684;23.252;2023-11-19T07:59:29;94554.41;;;0.82;84.79
11339;BME280;5724;42.684;23.252;2023-11-19T08:02:15;94541.41;;;0.71;84.47
11339;BME280;5724;42.684;23.252;2023-11-19T08:05:01;94563.44;;;0.73;83.81
11339;BME280;5724;42.684;23.252;2023-11-19T08:07:46;94549.03;;;0.64;83.98
11339;BME280;5724;42.684;23.252;2023-11-19T08:10:32;94560.75;;;0.73;85.22
11339;BME280;5724;42.684;23.252;2023-11-19T08:13:18;94563.06;;;0.61;84.62
11339;BME280;5724;42.684;23.252;2023-11-19T08:16:07;94561.63;;;0.68;84.96
11339;BME280;5724;42.684;23.252;2023-11-19T08:18:52;94592.28;;;0.67;84.41
11339;BME280;5724;42.684;23.252;2023-11-19T08:21:39;94556.41;;;0.58;85.88
11339;BME280;5724;42.684;23.252;2023-11-19T08:24:25;94561.69;;;0.63;85.54
11339;BME280;5724;42.684;23.252;2023-11-19T08:27:10;94583.84;;;0.74;85.18
11339;BME280;5724;42.684;23.252;2023-11-19T08:29:56;94557.75;;;0.74;84.93
11339;BME280;5724;42.684;23.252;2023-11-19T08:32:42;94560.44;;;0.74;85.87
11339;BME280;5724;42.684;23.252;2023-11-19T08:35:28;94564.53;;;0.72;84.64
11339;BME280;5724;42.684;23.252;2023-11-19T08:38:14;94568.81;;;0.73;83.92
11339;BME280;5724;42.684;23.252;2023-11-19T08:41:01;94567.41;;;0.75;85.06
11339;BME280;5724;42.684;23.252;2023-11-19T08:43:47;94572.38;;;0.87;83.29
11339;BME280;5724;42.684;23.252;2023-11-19T08:46:32;94573.28;;;0.96;82.79
11339;BME280;5724;42.684;23.252;2023-11-19T08:49:18;94576.56;;;0.93;81.76
11339;BME280;5724;42.684;23.252;2023-11-19T08:52:04;94563.13;;;0.93;82.20
11339;BME280;5724;42.684;23.252;2023-11-19T08:54:50;94550.97;;;0.96;82.33
11339;BME280;5724;42.684;23.252;2023-11-19T08:57:36;94574.31;;;1.00;81.98
11339;BME280;5724;42.684;23.252;2023-11-19T09:00:21;94574.47;;;1.09;82.54
11339;BME280;5724;42.684;23.252;2023-11-19T09:03:07;94573.00;;;1.17;81.81
11339;BME280;5724;42.684;23.252;2023-11-19T09:05:54;94587.75;;;1.19;80.95
11339;BME280;5724;42.684;23.252;2023-11-19T09:08:42;94561.81;;;1.09;82.15
11339;BME280;5724;42.684;23.252;2023-11-19T09:11:29;94565.19;;;1.15;81.39
11339;BME280;5724;42.684;23.252;2023-11-19T09:14:15;94554.97;;;1.31;81.10
11339;BME280;5724;42.684;23.252;2023-11-19T09:17:01;94546.47;;;1.24;80.79
11339;BME280;5724;42.684;23.252;2023-11-19T09:19:48;94535.53;;;1.34;81.35
11339;BME280;5724;42.684;23.252;2023-11-19T09:22:34;94550.84;;;1.52;80.95
11339;BME280;5724;42.684;23.252;2023-11-19T09:25:20;94578.03;;;1.37;79.44
11339;BME280;5724;42.684;23.252;2023-11-19T09:28:06;94569.44;;;1.35;80.17
11339;BME280;5724;42.684;23.252;2023-11-19T09:30:51;94572.97;;;1.35;81.24
11339;BME280;5724;42.684;23.252;2023-11-19T09:33:37;94562.47;;;1.34;80.77
11339;BME280;5724;42.684;23.252;2023-11-19T09:36:23;94545.44;;;1.38;81.65
11339;BME280;5724;42.684;23.252;2023-11-19T09:39:12;94535.16;;;1.27;80.93
11339;BME280;5724;42.684;23.252;2023-11-19T09:42:03;94522.78;;;1.26;82.07
11339;BME280;5724;42.684;23.252;2023-11-19T09:44:49;94542.13;;;1.28;81.59
11339;BME280;5724;42.684;23.252;2023-11-19T09:47:35;94522.78;;;1.26;82.41
11339;BME280;5724;42.684;23.252;2023-11-19T09:50:21;94501.44;;;1.29;82.01
11339;BME280;5724;42.684;23.252;2023-11-19T09:53:06;94522.38;;;1.32;81.32
11339;BME280;5724;42.684;23.252;2023-11-19T09:55:53;94488.28;;;1.28;81.53
11339;BME280;5724;42.684;23.252;2023-11-19T09:58:39;94504.16;;;1.43;81.22
11339;BME280;5724;42.684;23.252;2023-11-19T10:01:25;94491.72;;;1.47;81.77
11339;BME280;5724;42.684;23.252;2023-11-19T10:04:13;94492.50;;;1.48;81.63
11339;BME280;5724;42.684;23.252;2023-11-19T10:07:00;94511.34;;;1.48;80.93
11339;BME280;5724;42.684;23.252;2023-11-19T10:09:46;94497.19;;;1.42;78.81
11339;BME280;5724;42.684;23.252;2023-11-19T10:12:33;94499.38;;;1.54;79.69
11339;BME280;5724;42.684;23.252;2023-11-19T10:15:24;94486.81;;;1.49;79.79
11339;BME280;5724;42.684;23.252;2023-11-19T10:18:14;94508.88;;;1.65;79.20
11339;BME280;5724;42.684;23.252;2023-11-19T10:21:00;94521.63;;;1.59;79.27
11339;BME280;5724;42.684;23.252;2023-11-19T10:23:53;94515.25;;;1.55;79.82
11339;BME280;5724;42.684;23.252;2023-11-19T10:26:40;94509.06;;;1.68;80.46
11339;BME280;5724;42.684;23.252;2023-11-19T10:29:26;94502.78;;;1.73;80.03
11339;BME280;5724;42.684;23.252;2023-11-19T10:32:12;94484.34;;;1.94;81.52
11339;BME280;5724;42.684;23.252;2023-11-19T10:35:05;94488.78;;;2.12;79.04
11339;BME280;5724;42.684;23.252;2023-11-19T10:37:51;94488.06;;;2.20;78.37
11339;BME280;5724;42.684;23.252;2023-11-19T10:40:38;94482.19;;;2.32;77.29
11339;BME280;5724;42.684;23.252;2023-11-19T10:43:25;94504.25;;;2.20;78.15
11339;BME280;5724;42.684;23.252;2023-11-19T10:45:52;94493.47;;;2.20;78.61
11339;BME280;5724;42.684;23.252;2023-11-19T10:48:18;94496.88;;;2.26;78.10
11339;BME280;5724;42.684;23.252;2023-11-19T10:50:44;94502.44;;;2.29;78.07
11339;BME280;5724;42.684;23.252;2023-11-19T10:53:36;94507.34;;;2.27;78.03
11339;BME280;5724;42.684;23.252;2023-11-19T10:56:25;94478.78;;;2.26;77.40
11339;BME280;5724;42.684;23.252;2023-11-19T10:59:19;94486.72;;;2.45;76.38
11339;BME280;5724;42.684;23.252;2023-11-19T11:02:09;94499.06;;;2.60;74.99
11339;BME280;5724;42.684;23.252;2023-11-19T11:05:00;94487.00;;;2.57;74.62
11339;BME280;5724;42.684;23.252;2023-11-19T11:07:49;94449.13;;;3.16;77.44
11339;BME280;5724;42.684;23.252;2023-11-19T11:10:42;94446.03;;;4.28;76.14
11339;BME280;5724;42.684;23.252;2023-11-19T11:13:29;94447.50;;;4.69;73.99
11339;BME280;5724;42.684;23.252;2023-11-19T11:16:18;94450.47;;;5.10;72.27
11339;BME280;5724;42.684;23.252;2023-11-19T11:19:05;94447.16;;;4.79;68.46
11339;BME280;5724;42.684;23.252;2023-11-19T11:21:53;94441.50;;;5.36;69.49
11339;BME280;5724;42.684;23.252;2023-11-19T11:25:02;94448.94;;;4.83;66.12
11339;BME280;5724;42.684;23.252;2023-11-19T11:37:36;94441.41;;;4.20;68.70
11339;BME280;5724;42.684;23.252;2023-11-19T11:40:23;94432.69;;;4.40;67.37
11339;BME280;5724;42.684;23.252;2023-11-19T11:49:27;94420.13;;;4.27;66.70
11339;BME280;5724;42.684;23.252;2023-11-19T11:52:13;94404.66;;;4.19;67.73
11339;BME280;5724;42.684;23.252;2023-11-19T11:55:05;94406.59;;;4.44;66.31
11339;BME280;5724;42.684;23.252;2023-11-19T11:57:56;94400.28;;;3.74;66.82
11339;BME280;5724;42.684;23.252;2023-11-19T12:00:42;94412.91;;;4.05;66.38
11339;BME280;5724;42.684;23.252;2023-11-19T12:03:31;94415.94;;;4.03;67.11
11339;BME280;5724;42.684;23.252;2023-11-19T12:06:21;94400.38;;;4.09;66.19
11339;BME280;5724;42.684;23.252;2023-11-19T12:09:07;94409.44;;;4.30;65.26
11339;BME280;5724;42.684;23.252;2023-11-19T12:12:07;94383.84;;;4.28;65.76
11339;BME280;5724;42.684;23.252;2023-11-19T12:17:49;94386.22;;;4.55;64.86
11339;BME280;5724;42.684;23.252;2023-11-19T12:20:35;94379.38;;;4.49;64.34
11339;BME280;5724;42.684;23.252;2023-11-19T12:23:23;94380.97;;;4.42;65.79
11339;BME280;5724;42.684;23.252;2023-11-19T12:26:21;94366.31;;;4.34;66.22
11339;BME280;5724;42.684;23.252;2023-11-19T12:29:15;94377.97;;;4.35;64.65
11339;BME280;5724;42.684;23.252;2023-11-19T12:32:03;94377.78;;;4.14;64.69
11339;BME280;5724;42.684;23.252;2023-11-19T12:34:49;94362.34;;;4.23;67.28
11339;BME280;5724;42.684;23.252;2023-11-19T12:37:39;94368.09;;;4.21;67.31
11339;BME280;5724;42.684;23.252;2023-11-19T12:40:26;94368.06;;;4.13;66.63
11339;BME280;5724;42.684;23.252;2023-11-19T12:43:23;94356.94;;;4.40;66.43
11339;BME280;5724;42.684;23.252;2023-11-19T12:46:22;94377.78;;;4.40;66.07
11339;BME280;5724;42.684;23.252;2023-11-19T12:49:11;94356.63;;;4.33;67.01
11339;BME280;5724;42.684;23.252;2023-11-19T12:51:57;94346.44;;;4.30;66.85
11339;BME280;5724;42.684;23.252;2023-11-19T12:54:43;94348.03;;;4.31;67.01
11339;BME280;5724;42.684;23.252;2023-11-19T12:57:39;94347.72;;;4.07;67.63
11339;BME280;5724;42.684;23.252;2023-11-19T13:00:26;94346.31;;;4.26;68.35
11339;BME280;5724;42.684;23.252;2023-11-19T13:03:12;94341.22;;;4.16;66.20
11339;BME280;5724;42.684;23.252;2023-11-19T13:06:06;94338.19;;;4.26;64.97
11339;BME280;5724;42.684;23.252;2023-11-19T13:08:58;94355.22;;;4.36;65.28
11339;BME280;5724;42.684;23.252;2023-11-19T13:11:44;94342.16;;;4.38;64.55
11339;BME280;5724;42.684;23.252;2023-11-19T13:14:37;94350.41;;;4.50;64.32
11339;BME280;5724;42.684;23.252;2023-11-19T13:17:23;94344.19;;;4.49;64.38
11339;BME280;5724;42.684;23.252;2023-11-19T13:20:10;94350.25;;;4.64;64.01
11339;BME280;5724;42.684;23.252;2023-11-19T13:23:00;94324.13;;;4.68;62.60
11339;BME280;5724;42.684;23.252;2023-11-19T13:25:47;94342.75;;;4.69;61.83
11339;BME280;5724;42.684;23.252;2023-11-19T13:28:32;94327.13;;;4.75;60.61
11339;BME280;5724;42.684;23.252;2023-11-19T13:31:18;94318.84;;;4.80;60.70
11339;BME280;5724;42.684;23.252;2023-11-19T13:34:04;94327.91;;;4.84;60.01
11339;BME280;5724;42.684;23.252;2023-11-19T13:36:52;94323.91;;;4.90;58.69
11339;BME280;5724;42.684;23.252;2023-11-19T13:39:42;94339.53;;;4.84;57.37
11339;BME280;5724;42.684;23.252;2023-11-19T13:42:27;94335.88;;;4.80;56.94
11339;BME280;5724;42.684;23.252;2023-11-19T13:45:14;94338.41;;;4.85;57.11
11339;BME280;5724;42.684;23.252;2023-11-19T13:48:00;94343.50;;;4.87;57.49
11339;BME280;5724;42.684;23.252;2023-11-19T13:50:46;94336.97;;;4.88;57.47
11339;BME280;5724;42.684;23.252;2023-11-19T13:53:32;94338.72;;;4.93;57.13
11339;BME280;5724;42.684;23.252;2023-11-19T13:56:18;94339.66;;;4.97;57.97
11339;BME280;5724;42.684;23.252;2023-11-19T13:59:04;94344.06;;;5.10;58.43
11339;BME280;5724;42.684;23.252;2023-11-19T14:01:50;94340.75;;;5.04;57.68
11339;BME280;5724;42.684;23.252;2023-11-19T14:04:36;94346.94;;;5.13;58.56
11339;BME280;5724;42.684;23.252;2023-11-19T14:07:21;94354.63;;;4.94;57.68
11339;BME280;5724;42.684;23.252;2023-11-19T14:10:08;94358.47;;;4.84;58.68
11339;BME280;5724;42.684;23.252;2023-11-19T14:12:56;94357.69;;;4.84;59.00
11339;BME280;5724;42.684;23.252;2023-11-19T14:15:43;94361.03;;;4.81;59.27
11339;BME280;5724;42.684;23.252;2023-11-19T14:18:29;94357.84;;;4.70;59.34
11339;BME280;5724;42.684;23.252;2023-11-19T14:21:15;94364.91;;;4.54;60.14
11339;BME280;5724;42.684;23.252;2023-11-19T14:24:01;94373.63;;;4.59;60.56
11339;BME280;5724;42.684;23.252;2023-11-19T14:26:46;94364.59;;;4.38;61.22
11339;BME280;5724;42.684;23.252;2023-11-19T14:29:37;94363.47;;;4.39;62.23
11339;BME280;5724;42.684;23.252;2023-11-19T14:32:23;94367.13;;;4.26;62.40
11339;BME280;5724;42.684;23.252;2023-11-19T14:35:09;94358.06;;;4.13;62.12
11339;BME280;5724;42.684;23.252;2023-11-19T14:37:55;94367.13;;;4.17;62.15
11339;BME280;5724;42.684;23.252;2023-11-19T14:40:40;94367.59;;;4.02;62.76
11339;BME280;5724;42.684;23.252;2023-11-19T14:43:28;94344.84;;;4.12;62.67
11339;BME280;5724;42.684;23.252;2023-11-19T14:46:13;94350.56;;;4.01;61.78
11339;BME280;5724;42.684;23.252;2023-11-19T14:48:59;94357.22;;;3.78;62.19
11339;BME280;5724;42.684;23.252;2023-11-19T14:51:45;94368.19;;;3.73;63.58
11339;BME280;5724;42.684;23.252;2023-11-19T14:54:31;94355.31;;;3.70;63.51
11339;BME280;5724;42.684;23.252;2023-11-19T14:57:17;94355.75;;;3.63;64.11
11339;BME280;5724;42.684;23.252;2023-11-19T15:00:03;94337.47;;;3.52;64.47
11339;BME280;5724;42.684;23.252;2023-11-19T15:02:58;94351.28;;;3.50;65.65
11339;BME280;5724;42.684;23.252;2023-11-19T15:05:47;94353.63;;;3.34;67.71
11339;BME280;5724;42.684;23.252;2023-11-19T15:08:33;94358.91;;;3.08;70.33
11339;BME280;5724;42.684;23.252;2023-11-19T15:11:19;94369.31;;;2.93;71.41